Time;durP1;ratioP1;P1;durP2;ratioP2;P2;SDS_P1;SDS_P2;PMS_P1;PMS_P2;Temp;Humidity;BMP_temperature;BMP_pressure;BME280_temperature;BME280_humidity;BME280_pressure;Samples;Min_cycle;Max_cycle;Signal;HPM_P1;HPM_P2
2022/12/11 00:01:21;;;;;;;59.57;21.83;;;0.10;99.90;;;;;;5009401;28;20192;-77
2022/12/11 00:03:48;;;;;;;59.20;21.60;;;0.10;99.90;;;;;;4978976;28;20231;-78
2022/12/11 00:06:18;;;;;;;60.07;21.80;;;0.10;99.90;;;;;;4959307;28;20214;-77
2022/12/11 00:08:45;;;;;;;61.77;22.20;;;0.20;99.90;;;;;;4975474;28;20201;-81
2022/12/11 00:11:14;;;;;;;60.03;21.23;;;0.10;99.90;;;;;;4959733;28;20236;-82
2022/12/11 00:13:44;;;;;;;65.10;25.98;;;0.20;99.90;;;;;;4960790;28;20560;-77
2022/12/11 00:16:17;;;;;;;54.97;21.70;;;0.20;99.90;;;;;;4963484;28;20216;-79
2022/12/11 00:18:52;;;;;;;52.10;19.37;;;0.10;99.90;;;;;;4975495;28;20228;-75
2022/12/11 00:21:21;;;;;;;54.90;20.20;;;0.10;99.90;;;;;;4975241;28;20202;-74
2022/12/11 00:23:48;;;;;;;52.27;19.47;;;0.00;99.90;;;;;;4975295;28;20206;-78
2022/12/11 00:26:16;;;;;;;54.63;19.63;;;0.00;99.90;;;;;;4959114;28;20616;-76
2022/12/11 00:28:51;;;;;;;53.47;19.90;;;0.00;99.90;;;;;;4987388;28;20186;-75
2022/12/11 00:31:22;;;;;;;56.63;19.93;;;0.00;99.90;;;;;;4962347;28;20696;-79
2022/12/11 00:33:50;;;;;;;55.23;19.67;;;-0.10;99.90;;;;;;4984793;28;20722;-77
2022/12/11 00:36:22;;;;;;;53.60;20.43;;;-0.10;99.90;;;;;;4959352;28;20605;-77
2022/12/11 00:38:51;;;;;;;55.77;20.10;;;0.00;99.90;;;;;;4958855;28;20255;-77
2022/12/11 00:41:26;;;;;;;55.77;20.00;;;0.00;99.90;;;;;;4959022;28;20192;-77
2022/12/11 00:43:54;;;;;;;55.70;20.33;;;-0.10;99.90;;;;;;4958965;28;20229;-76
2022/12/11 00:46:21;;;;;;;56.33;19.97;;;-0.20;99.90;;;;;;4958745;28;20204;-80
2022/12/11 00:48:49;;;;;;;63.73;20.50;;;-0.10;99.90;;;;;;4958659;28;20302;-80
2022/12/11 00:51:20;;;;;;;55.17;19.63;;;-0.10;99.90;;;;;;4976247;28;20251;-80
2022/12/11 00:53:47;;;;;;;45.67;19.13;;;0.00;99.90;;;;;;4957815;28;20268;-74
2022/12/11 00:56:19;;;;;;;56.20;19.57;;;0.00;99.90;;;;;;4958711;28;20206;-75
2022/12/11 00:58:53;;;;;;;57.47;19.60;;;-0.20;99.90;;;;;;4959112;28;20205;-77
2022/12/11 01:01:24;;;;;;;52.57;20.07;;;-0.10;99.90;;;;;;4975920;28;20227;-76
2022/12/11 01:03:52;;;;;;;55.50;19.80;;;-0.10;99.90;;;;;;4958781;28;20221;-75
2022/12/11 01:06:23;;;;;;;52.53;18.90;;;0.00;99.90;;;;;;4958500;28;20197;-76
2022/12/11 01:11:43;;;;;;;57.30;20.03;;;0.00;99.90;;;;;;4947885;28;20584;-75
2022/12/11 01:14:14;;;;;;;61.40;21.07;;;0.00;99.90;;;;;;4973649;28;20208;-83
2022/12/11 01:16:42;;;;;;;51.97;19.93;;;-0.10;99.90;;;;;;4973602;28;20334;-79
2022/12/11 01:19:10;;;;;;;59.80;21.17;;;-0.10;99.90;;;;;;4992959;28;20195;-83
2022/12/11 01:21:37;;;;;;;63.60;21.13;;;-0.10;99.90;;;;;;4995627;28;20195;-81
2022/12/11 01:24:04;;;;;;;60.73;21.53;;;0.10;99.90;;;;;;4998602;28;20184;-80
2022/12/11 01:26:32;;;;;;;55.90;20.73;;;-0.10;99.90;;;;;;4977381;28;20200;-81
2022/12/11 01:28:59;;;;;;;59.63;20.37;;;-0.10;99.90;;;;;;4994812;28;20661;-79
2022/12/11 01:31:27;;;;;;;56.70;20.20;;;-0.30;99.90;;;;;;4996769;28;20243;-86
2022/12/11 01:33:55;;;;;;;61.93;20.90;;;-0.10;99.90;;;;;;4977779;28;20235;-82
2022/12/11 01:36:23;;;;;;;55.73;18.93;;;-0.10;99.90;;;;;;4977487;28;20246;-83
2022/12/11 01:38:50;;;;;;;61.57;21.10;;;-0.20;99.90;;;;;;4977250;28;20200;-79
2022/12/11 01:41:18;;;;;;;61.17;20.60;;;-0.20;99.90;;;;;;4977027;28;20691;-78
2022/12/11 01:43:55;;;;;;;64.20;20.77;;;-0.20;99.90;;;;;;4993555;28;20201;-81
2022/12/11 01:46:23;;;;;;;54.00;19.97;;;-0.30;99.90;;;;;;4977164;28;20293;-77
2022/12/11 01:48:54;;;;;;;60.53;20.33;;;-0.30;99.90;;;;;;4993579;28;20195;-78
2022/12/11 01:51:22;;;;;;;68.37;21.00;;;-0.40;99.90;;;;;;4977515;28;20212;-85
2022/12/11 01:54:03;;;;;;;58.87;18.83;;;-0.50;99.90;;;;;;4973801;28;20235;-78
2022/12/11 01:56:32;;;;;;;62.10;19.50;;;-0.60;99.90;;;;;;4957596;28;20204;-79
2022/12/11 01:59:06;;;;;;;67.70;19.53;;;-0.70;99.90;;;;;;4959377;28;20193;-78
2022/12/11 02:01:41;;;;;;;61.43;19.07;;;-0.60;99.90;;;;;;4974829;28;20546;-75
2022/12/11 02:04:10;;;;;;;66.97;20.00;;;-0.70;99.90;;;;;;4992824;28;20208;-76
2022/12/11 02:06:38;;;;;;;59.83;20.00;;;-0.80;99.90;;;;;;4977498;28;20201;-74
2022/12/11 02:09:12;;;;;;;63.67;20.07;;;-0.80;99.90;;;;;;4989827;28;20217;-75
2022/12/11 02:11:51;;;;;;;62.60;19.53;;;-0.90;99.90;;;;;;4993600;28;20239;-76
2022/12/11 02:14:21;;;;;;;61.60;19.17;;;-0.90;99.90;;;;;;5004667;28;20188;-75
2022/12/11 02:16:57;;;;;;;61.50;18.90;;;-0.90;99.90;;;;;;5003638;28;20210;-76
2022/12/11 02:19:46;;;;;;;61.60;19.03;;;-0.90;99.90;;;;;;5005682;28;20258;-78
2022/12/11 02:22:26;;;;;;;59.10;19.80;;;-0.90;99.90;;;;;;4984830;28;20731;-77
2022/12/11 02:25:11;;;;;;;63.73;18.93;;;-0.90;99.90;;;;;;4993812;28;20204;-77
2022/12/11 02:27:46;;;;;;;65.73;19.80;;;-0.90;99.90;;;;;;5013622;28;20701;-80
2022/12/11 02:30:15;;;;;;;63.80;19.47;;;-0.90;99.90;;;;;;4992612;28;20199;-81
2022/12/11 02:32:56;;;;;;;69.17;20.27;;;-0.90;99.90;;;;;;4979334;28;20370;-81
2022/12/11 02:35:55;;;;;;;61.33;18.63;;;-1.00;99.90;;;;;;4989614;28;20213;-79
2022/12/11 02:38:29;;;;;;;57.13;18.17;;;-1.00;99.90;;;;;;4952863;29;20202;-82
2022/12/11 02:41:01;;;;;;;63.30;18.63;;;-1.00;99.90;;;;;;4918271;29;20219;-81
2022/12/11 02:43:30;;;;;;;56.67;19.03;;;-1.00;99.90;;;;;;4917635;29;20301;-82
2022/12/11 02:45:59;;;;;;;65.43;20.00;;;-1.00;99.90;;;;;;4938001;29;20210;-73
2022/12/11 02:48:26;;;;;;;65.53;19.73;;;-1.00;99.90;;;;;;4936429;28;20293;-81
2022/12/11 02:50:57;;;;;;;63.27;19.13;;;-0.90;99.90;;;;;;4925829;29;20201;-80
2022/12/11 02:53:27;;;;;;;55.07;18.53;;;-0.90;99.90;;;;;;4931063;29;20746;-73
2022/12/11 02:56:11;;;;;;;57.20;18.20;;;-0.80;99.90;;;;;;4925393;29;20288;-82
2022/12/11 02:58:46;;;;;;;59.47;19.53;;;-0.90;99.90;;;;;;4945046;29;20200;-73
2022/12/11 03:01:13;;;;;;;57.90;18.33;;;-0.80;99.90;;;;;;4945450;29;20214;-74
2022/12/11 03:03:41;;;;;;;56.53;19.00;;;-0.80;99.90;;;;;;4932144;29;20226;-74
2022/12/11 03:06:12;;;;;;;56.57;18.63;;;-0.80;99.90;;;;;;4926657;29;20205;-75
2022/12/11 03:09:02;;;;;;;57.10;18.07;;;-0.80;99.90;;;;;;4930151;29;20197;-77
2022/12/11 03:17:42;;;;;;;52.10;17.00;;;-0.90;99.90;;;;;;4799636;29;20226;-83
2022/12/11 03:20:54;;;;;;;55.40;17.60;;;-0.90;99.90;;;;;;4802269;29;20327;-83
2022/12/11 03:23:32;;;;;;;50.30;16.63;;;-1.00;99.90;;;;;;4821917;29;20241;-85
2022/12/11 03:26:14;;;;;;;52.80;16.80;;;-1.10;99.90;;;;;;4816373;29;20219;-81
2022/12/11 03:33:43;;;;;;;49.60;16.43;;;-1.10;99.90;;;;;;4765972;30;20319;-74
2022/12/11 03:37:26;;;;;;;55.20;17.77;;;-1.00;99.90;;;;;;4752901;30;20203;-75
2022/12/11 03:41:12;;;;;;;48.43;16.43;;;-1.00;99.90;;;;;;4715157;30;20194;-75
2022/12/11 03:48:01;;;;;;;50.57;16.13;;;-1.00;99.90;;;;;;5110530;27;20536;-76
2022/12/11 03:50:31;;;;;;;44.77;16.60;;;-1.10;99.90;;;;;;5109528;28;20214;-75
2022/12/11 03:53:16;;;;;;;48.67;16.20;;;-1.10;99.90;;;;;;5110767;28;20207;-84
2022/12/11 03:55:45;;;;;;;46.67;16.77;;;-1.20;99.90;;;;;;5109185;28;20559;-84
2022/12/11 03:58:12;;;;;;;44.83;15.93;;;-1.10;99.90;;;;;;5109442;28;20478;-82
2022/12/11 04:00:39;;;;;;;43.53;15.43;;;-1.20;99.90;;;;;;5109459;28;20658;-83
2022/12/11 04:03:11;;;;;;;42.87;15.73;;;-1.20;99.90;;;;;;5108993;28;20536;-83
2022/12/11 04:05:45;;;;;;;44.33;16.00;;;-1.10;99.90;;;;;;5110150;28;20192;-85
2022/12/11 04:08:16;;;;;;;39.33;14.90;;;-1.10;99.90;;;;;;5090359;28;20517;-77
2022/12/11 04:13:42;;;;;;;38.13;14.23;;;-1.10;99.90;;;;;;5105965;28;20191;-79
2022/12/11 04:16:11;;;;;;;41.17;14.63;;;-1.20;99.90;;;;;;5092130;28;20628;-80
2022/12/11 04:24:15;;;;;;;32.63;13.00;;;-1.10;99.90;;;;;;5085340;28;20209;-79
2022/12/11 04:26:45;;;;;;;37.43;13.77;;;-1.20;99.90;;;;;;5068477;28;20220;-77
2022/12/11 04:29:14;;;;;;;37.37;14.23;;;-1.20;99.90;;;;;;5086919;28;20268;-76
2022/12/11 04:31:41;;;;;;;36.83;14.33;;;-1.20;99.90;;;;;;5069337;28;20187;-86
2022/12/11 04:34:10;;;;;;;42.97;14.60;;;-1.10;99.90;;;;;;5068348;28;20300;-77
2022/12/11 04:36:39;;;;;;;41.57;13.80;;;-1.00;99.90;;;;;;5084905;28;20694;-77
2022/12/11 04:39:07;;;;;;;40.80;15.30;;;-0.90;99.90;;;;;;5085527;28;20573;-78
2022/12/11 04:41:44;;;;;;;39.73;15.23;;;-0.90;99.90;;;;;;5089366;28;20587;-78
2022/12/11 04:44:20;;;;;;;38.23;15.70;;;-0.90;99.90;;;;;;5104865;28;20617;-75
2022/12/11 04:46:49;;;;;;;39.90;14.97;;;-1.00;99.90;;;;;;5087399;28;20567;-77
2022/12/11 04:49:23;;;;;;;40.90;15.30;;;-1.00;99.90;;;;;;5105214;28;20310;-75
2022/12/11 04:51:51;;;;;;;39.83;15.53;;;-1.00;99.90;;;;;;5089170;28;20582;-75
2022/12/11 04:54:18;;;;;;;39.67;15.03;;;-1.00;99.90;;;;;;5087718;28;20196;-76
2022/12/11 04:56:45;;;;;;;39.40;15.93;;;-1.10;99.90;;;;;;5087512;28;20270;-76
2022/12/11 04:59:13;;;;;;;40.03;15.20;;;-1.10;99.90;;;;;;5075082;28;20192;-77
2022/12/11 05:01:43;;;;;;;40.83;15.97;;;-1.10;99.90;;;;;;5074354;28;20199;-77
2022/12/11 05:04:10;;;;;;;39.60;16.10;;;-1.10;99.90;;;;;;5075543;28;20239;-76
2022/12/11 05:06:43;;;;;;;40.83;15.47;;;-1.10;99.90;;;;;;5074074;28;20252;-76
2022/12/11 05:09:12;;;;;;;45.23;15.97;;;-1.20;99.90;;;;;;5075291;28;20176;-76
2022/12/11 05:11:42;;;;;;;39.50;15.20;;;-1.20;99.90;;;;;;5074155;28;20253;-75
2022/12/11 05:14:09;;;;;;;43.47;16.17;;;-1.20;99.90;;;;;;5074197;28;20198;-76
2022/12/11 05:16:36;;;;;;;42.00;15.20;;;-1.20;99.90;;;;;;5074936;28;20210;-76
2022/12/11 05:19:07;;;;;;;43.00;15.83;;;-1.20;99.90;;;;;;5075478;28;20547;-83
2022/12/11 05:21:34;;;;;;;40.30;15.03;;;-1.20;99.90;;;;;;5097244;28;20205;-86
2022/12/11 05:24:02;;;;;;;37.97;14.63;;;-1.30;99.90;;;;;;5075937;28;20194;-84
2022/12/11 05:26:30;;;;;;;36.00;14.20;;;-1.30;99.90;;;;;;5082960;28;20219;-85
2022/12/11 05:28:58;;;;;;;36.63;14.40;;;-1.30;99.90;;;;;;5098550;28;20199;-81
2022/12/11 05:31:26;;;;;;;37.20;14.67;;;-1.30;99.90;;;;;;5075668;28;20198;-82
2022/12/11 05:33:53;;;;;;;38.23;14.67;;;-1.20;99.90;;;;;;5091033;28;20210;-87
2022/12/11 05:36:33;;;;;;;36.33;13.63;;;-1.20;99.90;;;;;;5078897;28;20195;-87
2022/12/11 05:39:02;;;;;;;37.30;14.10;;;-1.20;99.90;;;;;;5076615;28;20203;-89
2022/12/11 05:41:31;;;;;;;34.83;14.67;;;-1.30;99.90;;;;;;5073683;28;20198;-89
2022/12/11 05:44:01;;;;;;;31.90;13.03;;;-1.30;99.90;;;;;;5073952;28;20186;-81
2022/12/11 05:46:30;;;;;;;36.80;13.60;;;-1.40;99.90;;;;;;5074578;28;20257;-89
2022/12/11 05:49:00;;;;;;;33.90;14.07;;;-1.40;99.90;;;;;;5074480;28;20583;-78
2022/12/11 05:51:44;;;;;;;31.13;12.83;;;-1.40;99.90;;;;;;5090320;28;20641;-80
2022/12/11 05:54:48;;;;;;;32.60;13.07;;;-1.50;99.90;;;;;;5073595;28;20634;-85
2022/12/11 05:57:51;;;;;;;33.27;12.77;;;-1.50;99.90;;;;;;5074366;28;20679;-77
2022/12/11 06:00:34;;;;;;;28.50;12.07;;;-1.50;99.90;;;;;;5073617;28;20196;-77
2022/12/11 06:03:07;;;;;;;29.10;11.93;;;-1.50;99.90;;;;;;5076429;28;20299;-78
2022/12/11 06:06:39;;;;;;;30.90;11.90;;;-1.60;99.90;;;;;;5074661;28;20578;-81
2022/12/11 06:10:22;;;;;;;26.10;11.63;;;-1.50;99.90;;;;;;5029722;28;20202;-78
2022/12/11 06:17:12;;;;;;;25.50;10.90;;;-1.80;99.90;;;;;;5031632;28;20224;-77
2022/12/11 06:19:43;;;;;;;25.10;10.87;;;-1.80;99.90;;;;;;5015384;28;20249;-78
2022/12/11 06:22:10;;;;;;;28.93;11.47;;;-1.90;99.90;;;;;;5015512;28;20200;-77
2022/12/11 06:24:40;;;;;;;26.57;11.07;;;-1.70;99.90;;;;;;5031931;28;20250;-77
2022/12/11 06:27:08;;;;;;;24.10;10.77;;;-1.70;99.90;;;;;;5015017;28;20263;-81
2022/12/11 06:29:34;;;;;;;25.50;10.77;;;-1.70;99.90;;;;;;5015901;28;20210;-83
2022/12/11 06:32:11;;;;;;;23.07;9.70;;;-1.80;99.90;;;;;;5032035;28;20203;-83
2022/12/11 06:34:41;;;;;;;23.63;10.60;;;-1.80;99.90;;;;;;5015683;28;20211;-78
2022/12/11 06:37:11;;;;;;;23.50;10.33;;;-1.80;99.90;;;;;;5016127;28;20180;-76
2022/12/11 06:39:50;;;;;;;21.13;9.30;;;-1.80;99.90;;;;;;5016376;28;20211;-76
2022/12/11 06:42:38;;;;;;;25.23;10.70;;;-1.90;99.90;;;;;;5032314;28;20351;-83
2022/12/11 06:45:11;;;;;;;23.20;10.07;;;-1.90;99.90;;;;;;5045609;28;20207;-85
2022/12/11 06:47:45;;;;;;;24.37;9.97;;;-1.80;99.90;;;;;;5073850;28;20362;-76
2022/12/11 06:50:44;;;;;;;;;;;;;;;;;;;;;
2022/12/11 06:53:56;;;;;;;23.27;10.47;;;-1.90;99.90;;;;;;5072216;28;20289;-87
2022/12/11 06:56:44;;;;;;;22.80;10.17;;;-1.90;99.90;;;;;;5076009;28;20722;-85
2022/12/11 06:59:31;;;;;;;21.10;9.23;;;-1.80;99.90;;;;;;5085830;28;20209;-82
2022/12/11 07:01:58;;;;;;;21.63;9.40;;;-2.00;99.90;;;;;;5089090;28;20207;-81
2022/12/11 07:04:37;;;;;;;20.80;9.80;;;-2.00;99.90;;;;;;5072084;28;20207;-80
2022/12/11 07:07:30;;;;;;;22.17;8.97;;;-2.00;99.90;;;;;;5072956;28;20218;-77
2022/12/11 07:10:03;;;;;;;22.67;9.23;;;-2.00;99.90;;;;;;5055075;28;20673;-77
2022/12/11 07:12:35;;;;;;;21.60;9.77;;;-2.10;99.90;;;;;;5088686;28;20190;-76
2022/12/11 07:15:09;;;;;;;24.40;9.90;;;-2.10;99.90;;;;;;5071438;28;20728;-76
2022/12/11 07:17:41;;;;;;;20.07;8.73;;;-2.00;99.90;;;;;;5070262;28;20853;-76
2022/12/11 07:20:16;;;;;;;22.07;9.10;;;-2.10;99.90;;;;;;5055551;28;20701;-86
2022/12/11 07:23:42;;;;;;;;;;;;;;;;;;;;;
2022/12/11 07:26:48;;;;;;;22.00;9.07;;;-2.10;99.90;;;;;;5007524;28;20288;-78
2022/12/11 07:29:35;;;;;;;23.57;9.20;;;-2.00;99.90;;;;;;5010648;28;20307;-77
2022/12/11 07:32:10;;;;;;;22.13;9.33;;;-1.90;99.90;;;;;;4991615;28;20242;-79
2022/12/11 07:35:58;;;;;;;;;;;;;;;;;;;;;
2022/12/11 07:56:57;;;;;;;22.37;9.10;;;-2.10;99.90;;;;;;5921848;22;7212729;-76
2022/12/11 07:59:24;;;;;;;21.53;9.10;;;-2.10;99.90;;;;;;6197759;23;20201;-80
2022/12/11 08:01:51;;;;;;;22.80;9.57;;;-2.10;99.90;;;;;;6203600;23;20197;-80
2022/12/11 08:04:21;;;;;;;22.13;9.73;;;-2.00;99.90;;;;;;6202115;23;20178;-82
2022/12/11 08:06:48;;;;;;;26.93;9.63;;;-2.00;99.90;;;;;;6197534;23;20168;-81
2022/12/11 08:10:07;;;;;;;24.30;10.07;;;-2.10;99.90;;;;;;6223677;23;20213;-80
2022/12/11 08:12:40;;;;;;;24.90;10.37;;;-2.00;99.90;;;;;;6131728;23;20526;-77
2022/12/11 08:15:23;;;;;;;24.57;10.60;;;-2.00;99.90;;;;;;6107942;23;20192;-78
2022/12/11 08:18:22;;;;;;;26.77;11.03;;;-2.10;99.90;;;;;;6131630;23;20205;-83
2022/12/11 08:21:22;;;;;;;27.33;10.27;;;-2.00;99.90;;;;;;6132095;23;20169;-82
2022/12/11 08:24:45;;;;;;;29.77;12.03;;;-1.80;99.90;;;;;;6105175;23;20474;-80
2022/12/11 08:27:16;;;;;;;28.03;11.27;;;-1.80;99.90;;;;;;5993166;23;20330;-77
2022/12/11 08:29:56;;;;;;;28.40;11.50;;;-1.90;99.90;;;;;;6129250;23;20180;-82
2022/12/11 08:32:50;;;;;;;26.70;10.87;;;-2.10;99.90;;;;;;6132694;23;20195;-83
2022/12/11 08:36:26;;;;;;;25.67;11.20;;;-2.10;99.90;;;;;;6128841;23;20255;-76
2022/12/11 08:39:17;;;;;;;25.10;10.87;;;-2.10;99.90;;;;;;6096287;23;20240;-75
2022/12/11 08:41:44;;;;;;;26.77;11.20;;;-2.10;99.90;;;;;;6106935;23;20603;-83
2022/12/11 08:44:11;;;;;;;25.80;9.97;;;-2.10;99.90;;;;;;6131576;23;20173;-80
2022/12/11 08:46:42;;;;;;;27.20;10.77;;;-2.20;99.90;;;;;;6157256;23;20542;-85
2022/12/11 08:49:09;;;;;;;25.27;10.97;;;-2.10;99.90;;;;;;6197116;23;20620;-83
2022/12/11 08:51:38;;;;;;;29.37;11.90;;;-2.00;99.90;;;;;;6197588;23;20163;-82
2022/12/11 08:54:04;;;;;;;25.70;10.90;;;-2.00;99.90;;;;;;6224729;23;20510;-81
2022/12/11 08:56:32;;;;;;;23.07;10.47;;;-2.10;99.90;;;;;;6188874;23;20238;-83
2022/12/11 08:59:00;;;;;;;26.03;11.03;;;-2.10;99.90;;;;;;6185414;23;20167;-81
2022/12/11 09:01:33;;;;;;;25.20;11.03;;;-2.00;99.90;;;;;;6184785;23;20171;-81
2022/12/11 09:04:34;;;;;;;24.80;10.00;;;-2.10;99.90;;;;;;6144271;23;20557;-76
2022/12/11 09:07:12;;;;;;;21.30;9.47;;;-2.00;99.90;;;;;;6185349;23;20175;-80
2022/12/11 09:10:24;;;;;;;24.83;9.90;;;-2.00;99.90;;;;;;6185039;23;20256;-77
2022/12/11 09:13:51;;;;;;;25.00;10.03;;;-2.10;99.90;;;;;;6186569;23;20171;-82
2022/12/11 09:19:35;;;;;;;22.00;10.03;;;-2.10;99.90;;;;;;6184747;23;20214;-76
2022/12/11 09:22:10;;;;;;;24.63;9.90;;;-2.10;99.90;;;;;;6186342;23;20220;-76
2022/12/11 09:25:22;;;;;;;23.67;9.80;;;-2.10;99.90;;;;;;6183931;23;20222;-75
2022/12/11 09:28:39;;;;;;;;;;;;;;;;;;;;;
2022/12/11 09:31:56;;;;;;;24.67;9.77;;;-2.10;99.90;;;;;;6184442;23;20168;-76
2022/12/11 09:34:43;;;;;;;29.67;10.60;;;-2.00;99.90;;;;;;6143256;23;20175;-76
2022/12/11 09:37:48;;;;;;;25.13;10.37;;;-2.00;99.90;;;;;;6123360;23;20638;-76
2022/12/11 09:40:30;;;;;;;24.13;10.00;;;-2.10;99.90;;;;;;6124478;23;20232;-75
2022/12/11 09:43:35;;;;;;;26.43;10.97;;;-2.10;99.90;;;;;;6100350;23;20292;-79
2022/12/11 09:46:25;;;;;;;24.07;10.67;;;-2.10;99.90;;;;;;6124563;23;20197;-77
2022/12/11 09:49:40;;;;;;;23.93;10.77;;;-1.90;99.90;;;;;;6124461;23;20241;-82
2022/12/11 09:52:41;;;;;;;24.70;10.03;;;-2.10;99.90;;;;;;6100212;23;20251;-80
2022/12/11 09:56:29;;;;;;;25.53;9.80;;;-2.10;99.90;;;;;;6124893;23;20690;-79
2022/12/11 09:59:57;;;;;;;25.00;10.13;;;-2.00;99.90;;;;;;6010262;23;20164;-81
2022/12/11 10:02:47;;;;;;;23.20;9.73;;;-2.10;99.90;;;;;;6082312;23;20225;-74
2022/12/11 10:09:39;;;;;;;20.53;9.17;;;-2.00;99.90;;;;;;6044302;23;20167;-79
2022/12/11 10:12:56;;;;;;;24.83;9.87;;;-2.00;99.90;;;;;;6124310;23;20165;-83
2022/12/11 10:16:52;;;;;;;23.43;10.07;;;-2.20;99.90;;;;;;6086788;23;20231;-79
2022/12/11 10:19:58;;;;;;;22.87;9.40;;;-2.10;99.90;;;;;;6039661;23;20788;-76
2022/12/11 10:23:14;;;;;;;21.43;9.17;;;-2.00;99.90;;;;;;6073383;23;20189;-86
2022/12/11 10:26:04;;;;;;;23.53;10.30;;;-2.00;99.90;;;;;;6125118;23;20243;-75
2022/12/11 10:29:24;;;;;;;23.87;9.40;;;-1.80;99.90;;;;;;6077114;23;20180;-75
2022/12/11 10:32:32;;;;;;;;;;;;;;;;;;;;;
2022/12/11 10:35:51;;;;;;;25.37;9.73;;;-1.80;99.90;;;;;;6123669;23;20589;-81
2022/12/11 10:38:43;;;;;;;22.70;10.57;;;-1.70;99.90;;;;;;6017666;23;20315;-90
2022/12/11 10:41:16;;;;;;;21.40;10.23;;;-1.90;99.90;;;;;;6070913;23;20171;-81
2022/12/11 10:43:51;;;;;;;22.93;9.50;;;-2.00;99.90;;;;;;6073344;23;20180;-78
2022/12/11 10:46:31;;;;;;;25.93;10.13;;;-2.00;99.90;;;;;;6094899;23;20214;-81
2022/12/11 10:49:00;;;;;;;25.60;10.40;;;-2.10;99.90;;;;;;6093433;23;20171;-88
2022/12/11 10:51:30;;;;;;;22.17;10.23;;;-1.90;99.90;;;;;;6070234;23;20170;-84
2022/12/11 10:54:07;;;;;;;23.87;10.13;;;-2.00;99.90;;;;;;6069448;23;20205;-77
2022/12/11 10:56:36;;;;;;;23.07;10.00;;;-2.00;99.90;;;;;;6064801;23;20217;-77
2022/12/11 10:59:04;;;;;;;24.47;9.60;;;-2.10;99.90;;;;;;6063720;23;20620;-77
2022/12/11 11:01:31;;;;;;;21.70;9.83;;;-2.10;99.90;;;;;;6064923;23;20542;-77
2022/12/11 11:04:15;;;;;;;19.10;9.23;;;-2.00;99.90;;;;;;6064724;23;20258;-76
2022/12/11 11:06:44;;;;;;;24.70;9.93;;;-2.10;99.90;;;;;;6064867;23;20194;-80
2022/12/11 11:09:38;;;;;;;21.17;9.50;;;-2.00;99.90;;;;;;6065312;23;20178;-82
2022/12/11 11:12:25;;;;;;;21.23;8.50;;;-2.10;99.90;;;;;;6064337;23;20179;-83
2022/12/11 11:15:10;;;;;;;25.00;9.50;;;-2.00;99.90;;;;;;6081421;23;20200;-83
2022/12/11 11:17:53;;;;;;;21.33;9.27;;;-1.80;99.90;;;;;;6155389;23;20152;-83
2022/12/11 11:20:28;;;;;;;20.20;9.17;;;-1.90;99.90;;;;;;6153049;23;20257;-82
2022/12/11 11:23:07;;;;;;;22.37;9.90;;;-1.80;99.90;;;;;;6153478;23;20169;-79
2022/12/11 11:25:34;;;;;;;20.37;8.73;;;-1.70;99.90;;;;;;6154555;23;20192;-82
2022/12/11 11:28:14;;;;;;;22.63;8.80;;;-1.70;99.90;;;;;;6155362;23;20241;-81
2022/12/11 11:30:53;;;;;;;18.10;8.23;;;-1.90;99.90;;;;;;6130267;23;20598;-80
2022/12/11 11:33:22;;;;;;;18.63;8.03;;;-2.00;99.90;;;;;;6128728;23;20267;-81
2022/12/11 11:36:19;;;;;;;18.00;8.30;;;-1.90;99.90;;;;;;6153219;23;20173;-82
2022/12/11 11:39:20;;;;;;;15.23;7.30;;;-2.10;99.90;;;;;;6150828;23;20177;-81
2022/12/11 11:42:17;;;;;;;15.17;7.47;;;-2.00;99.90;;;;;;6129334;23;20180;-82
2022/12/11 11:45:12;;;;;;;16.17;7.83;;;-1.90;99.90;;;;;;6155959;23;20609;-83
2022/12/11 11:47:53;;;;;;;16.90;8.03;;;-2.00;99.90;;;;;;6155375;23;20284;-76
2022/12/11 11:50:25;;;;;;;18.60;8.93;;;-1.90;99.90;;;;;;6152098;23;20341;-78
2022/12/11 11:53:09;;;;;;;16.77;7.83;;;-1.90;99.90;;;;;;6129219;23;20612;-74
2022/12/11 11:56:01;;;;;;;18.87;8.37;;;-2.00;99.90;;;;;;6162869;23;20660;-87
2022/12/11 11:58:48;;;;;;;17.03;7.57;;;-2.20;99.90;;;;;;6183043;23;20489;-81
2022/12/11 12:01:19;;;;;;;18.07;8.03;;;-2.30;99.90;;;;;;6183285;23;20168;-84
2022/12/11 12:03:48;;;;;;;14.13;7.43;;;-2.30;99.90;;;;;;6182117;23;20259;-81
2022/12/11 12:06:57;;;;;;;16.73;8.00;;;-2.20;99.90;;;;;;6208200;23;20187;-83
2022/12/11 12:09:47;;;;;;;14.47;7.53;;;-2.20;99.90;;;;;;6159315;23;20178;-85
2022/12/11 12:12:51;;;;;;;14.63;7.60;;;-2.10;99.90;;;;;;6184327;23;20615;-86
2022/12/11 12:15:27;;;;;;;16.80;7.87;;;-2.00;99.90;;;;;;6181760;23;20296;-83
2022/12/11 12:17:55;;;;;;;18.90;8.40;;;-1.90;99.90;;;;;;6184544;23;20497;-84
2022/12/11 12:20:46;;;;;;;19.87;9.23;;;-1.80;99.90;;;;;;6182507;23;20168;-88
2022/12/11 12:23:25;;;;;;;16.83;8.23;;;-1.80;99.90;;;;;;6184750;23;20156;-82
2022/12/11 12:26:14;;;;;;;18.47;8.80;;;-2.00;99.90;;;;;;6184084;23;20185;-80
2022/12/11 12:29:13;;;;;;;19.97;8.77;;;-2.20;99.90;;;;;;6184627;23;20490;-85
2022/12/11 12:32:06;;;;;;;18.67;8.37;;;-2.10;99.90;;;;;;6152651;23;20183;-87
2022/12/11 12:34:42;;;;;;;16.03;7.83;;;-2.20;99.90;;;;;;6209197;23;20271;-80
2022/12/11 12:37:31;;;;;;;18.03;8.27;;;-2.20;99.90;;;;;;6184840;23;20203;-81
2022/12/11 12:40:18;;;;;;;15.27;7.67;;;-2.20;99.90;;;;;;6186695;23;20175;-86
2022/12/11 12:43:00;;;;;;;16.10;7.83;;;-2.20;99.90;;;;;;6184674;23;20159;-77
2022/12/11 12:45:57;;;;;;;17.83;8.73;;;-2.10;99.90;;;;;;6184626;23;20226;-75
2022/12/11 12:48:26;;;;;;;18.80;8.70;;;-2.20;99.90;;;;;;6096549;23;20533;-88
2022/12/11 12:50:56;;;;;;;16.47;7.60;;;-2.20;99.90;;;;;;6098225;23;20182;-88
2022/12/11 12:53:27;;;;;;;20.60;9.23;;;-2.00;99.90;;;;;;6095649;23;20184;-89
2022/12/11 12:55:55;;;;;;;21.20;9.00;;;-1.90;99.90;;;;;;6080379;23;20329;-80
2022/12/11 12:58:38;;;;;;;20.13;9.13;;;-1.90;99.90;;;;;;6096032;23;20228;-83
2022/12/11 13:01:09;;;;;;;21.43;9.73;;;-1.80;99.90;;;;;;6081847;23;20242;-87
2022/12/11 13:04:01;;;;;;;23.00;10.37;;;-1.70;99.90;;;;;;6070163;23;20208;-85
2022/12/11 13:06:43;;;;;;;23.63;10.27;;;-1.80;99.90;;;;;;6094941;23;20623;-80
2022/12/11 13:09:17;;;;;;;24.47;10.90;;;-1.90;99.90;;;;;;6070617;23;20176;-84
2022/12/11 13:11:48;;;;;;;23.77;11.33;;;-2.10;99.90;;;;;;6094968;23;20177;-85
2022/12/11 13:14:15;;;;;;;25.50;10.47;;;-2.10;99.90;;;;;;6094473;23;20287;-81
2022/12/11 13:16:47;;;;;;;25.77;11.00;;;-2.10;99.90;;;;;;6070472;23;20202;-80
2022/12/11 13:19:24;;;;;;;21.83;9.93;;;-2.20;99.90;;;;;;6094676;23;20178;-82
2022/12/11 13:22:00;;;;;;;21.07;10.30;;;-2.10;99.90;;;;;;6070676;23;20249;-80
2022/12/11 13:24:31;;;;;;;23.10;10.57;;;-2.20;99.90;;;;;;6102779;23;20276;-79
2022/12/11 13:27:22;;;;;;;22.10;10.27;;;-2.10;99.90;;;;;;6154296;23;20653;-81
2022/12/11 13:29:49;;;;;;;20.73;10.20;;;-2.10;99.90;;;;;;6154449;23;20168;-81
2022/12/11 13:32:15;;;;;;;23.03;10.87;;;-2.10;99.90;;;;;;6156277;23;20614;-79
2022/12/11 13:34:50;;;;;;;24.43;11.40;;;-2.10;99.90;;;;;;6153049;23;20472;-79
2022/12/11 13:37:42;;;;;;;23.53;11.03;;;-2.10;99.90;;;;;;6153741;23;20668;-79
2022/12/11 13:40:21;;;;;;;21.80;10.40;;;-2.10;99.90;;;;;;6157133;23;20599;-83
2022/12/11 13:42:51;;;;;;;23.33;10.23;;;-2.20;99.90;;;;;;6155218;23;20176;-81
2022/12/11 13:45:26;;;;;;;23.03;10.77;;;-2.20;99.90;;;;;;6155969;23;20159;-85
2022/12/11 13:47:58;;;;;;;21.27;10.20;;;-2.20;99.90;;;;;;6154458;23;20268;-80
2022/12/11 13:50:31;;;;;;;21.83;10.60;;;-2.30;99.90;;;;;;6160040;23;20165;-81
2022/12/11 13:53:00;;;;;;;19.40;9.13;;;-2.30;99.90;;;;;;6155632;23;20477;-83
2022/12/11 13:55:33;;;;;;;19.33;9.13;;;-2.30;99.90;;;;;;6173215;23;20221;-79
2022/12/11 13:58:00;;;;;;;20.03;9.37;;;-2.30;99.90;;;;;;6216770;23;20589;-81
2022/12/11 14:00:30;;;;;;;21.03;10.30;;;-2.40;99.90;;;;;;6215680;23;20195;-79
2022/12/11 14:03:02;;;;;;;22.40;10.27;;;-2.30;99.90;;;;;;6215624;23;20261;-79
2022/12/11 14:05:30;;;;;;;21.00;10.17;;;-2.30;99.90;;;;;;6189912;23;20174;-78
2022/12/11 14:08:02;;;;;;;21.83;10.53;;;-2.40;99.90;;;;;;6217744;23;20265;-80
2022/12/11 14:10:31;;;;;;;22.70;10.60;;;-2.50;99.90;;;;;;6189690;23;20171;-79
2022/12/11 14:12:58;;;;;;;22.83;10.47;;;-2.40;99.90;;;;;;6190596;23;20266;-77
2022/12/11 14:15:26;;;;;;;22.53;10.10;;;-2.50;99.90;;;;;;6188804;23;20528;-83
2022/12/11 14:17:54;;;;;;;21.80;10.30;;;-2.50;99.90;;;;;;6188799;23;20179;-81
2022/12/11 14:20:27;;;;;;;23.73;10.80;;;-2.50;99.90;;;;;;6189231;23;20266;-83
2022/12/11 14:23:22;;;;;;;22.77;10.50;;;-2.50;99.90;;;;;;6188723;23;20178;-83
2022/12/11 14:26:00;;;;;;;23.03;10.57;;;-2.60;99.90;;;;;;6164378;23;20171;-83
2022/12/11 14:28:35;;;;;;;24.47;10.57;;;-2.60;99.90;;;;;;6188968;23;20169;-83
2022/12/11 14:31:05;;;;;;;22.77;10.13;;;-2.60;99.90;;;;;;6215260;23;20185;-80
2022/12/11 14:33:37;;;;;;;21.47;9.87;;;-2.70;99.90;;;;;;6187877;23;20175;-82
2022/12/11 14:36:05;;;;;;;21.07;9.87;;;-2.70;99.90;;;;;;6189298;23;20181;-79